Terminal Aerodrome Forecast
Issued by NWS

Home | Current Version | Previous Version | Text Only | Print | Product List | Glossary On
Versions: 1 2 3 4 5 6 7 8 9 10 11 12 13 14 15 16 17 18 19 20 21 22 23 24 25 26 27 28
008
FTUS42 KJAX 280633 AAA
TAFVQQ
TAF AMD
KVQQ 280633Z 2807/2906 VRB02KT 5SM BR SCT010 SCT050 BKN120
      TEMPO 2807/2811 BKN008
     FM281400 07008KT P6SM VCSH SCT015 BKN050
     FM281800 08010G18KT P6SM VCSH SCT040 BKN100 BKN250
     FM290100 09006KT P6SM SCT030 BKN250=

USA.gov is the U.S. government's official web portal to all federal, state and local government web resources and services.